< < Back
Terminal Aerodrome Forecast


Current Version              Previous Versions:   1  2  3  4  5  6  7  8  9  

Terminal Aerodrome Forecast

524
FTUS44 KBMX 280711 AAA
TAFBHM
TAF AMD
KBHM 280711Z 2807/2906 09003KT P6SM SCT005
      TEMPO 2807/2808 5SM BR BKN005
     FM280800 00000KT 5SM BR BKN005
     FM281100 12003KT 5SM -DZ BKN007 OVC015
     FM281600 12005KT P6SM BKN015
     FM281900 12007KT P6SM SHRA VCTS OVC050CB
     FM290200 11004KT P6SM OVC050=



Latest METAR

568
SAUS70 KWBC 290000 RRA
MTRBHM
METAR KBHM 282353Z 08003KT 10SM FEW009 BKN080 OVC250 23/22 A3016 RMK AO2
SLP208 60039 T02280217 10267 20206 53000


USA.gov is the U.S. government's official web portal to all federal, state and local government web resources and services.